Time;durP1;ratioP1;P1;durP2;ratioP2;P2;SDS_P1;SDS_P2;PMS_P1;PMS_P2;Temp;Humidity;BMP_temperature;BMP_pressure;BME280_temperature;BME280_humidity;BME280_pressure;Samples;Min_cycle;Max_cycle;Signal;HPM_P1;HPM_P2
2022/04/27 00:02:02;;;;;;;10.52;7.82;;;;;;;6.57;100.00;96895.34;4939266;29;20456;-67
2022/04/27 00:04:28;;;;;;;10.95;8.15;;;;;;;6.60;100.00;96892.75;4940080;29;20043;-68
2022/04/27 00:06:53;;;;;;;14.50;9.35;;;;;;;6.68;100.00;96889.16;4926897;29;20043;-68
2022/04/27 00:09:19;;;;;;;11.43;8.43;;;;;;;6.61;100.00;96888.09;4929788;29;20057;-68
2022/04/27 00:11:44;;;;;;;15.35;9.45;;;;;;;6.51;100.00;96887.38;4952633;29;20476;-69
2022/04/27 00:14:09;;;;;;;13.30;9.07;;;;;;;6.56;100.00;96888.34;4926948;29;20047;-67
2022/04/27 00:16:35;;;;;;;11.68;7.90;;;;;;;6.60;100.00;96898.19;4925539;29;20047;-67
2022/04/27 00:19:01;;;;;;;10.43;8.13;;;;;;;6.56;100.00;96886.41;4940948;28;20511;-68
2022/04/27 00:21:27;;;;;;;12.30;8.30;;;;;;;6.57;100.00;96892.63;4897044;29;20074;-67
2022/04/27 00:23:52;;;;;;;10.57;7.68;;;;;;;6.55;100.00;96887.50;4971524;23;20043;-69
2022/04/27 00:26:18;;;;;;;12.93;8.82;;;;;;;6.59;100.00;96893.91;4978159;28;20044;-66
2022/04/27 00:28:43;;;;;;;13.77;8.70;;;;;;;6.59;100.00;96885.72;4981121;28;20140;-66
2022/04/27 00:31:09;;;;;;;11.10;8.13;;;;;;;6.64;100.00;96882.78;4959414;28;20038;-66
2022/04/27 00:33:34;;;;;;;11.40;8.30;;;;;;;6.60;100.00;96887.31;4963899;28;20046;-67
2022/04/27 00:36:00;;;;;;;11.05;7.82;;;;;;;6.58;100.00;96886.84;4977793;28;20050;-67
2022/04/27 00:38:25;;;;;;;12.73;8.90;;;;;;;6.60;100.00;96894.69;4947176;28;20105;-67
2022/04/27 00:40:51;;;;;;;11.52;8.38;;;;;;;6.59;100.00;96883.00;4978444;28;20034;-67
2022/04/27 00:43:34;;;;;;;12.20;7.95;;;;;;;6.60;100.00;96887.31;4967377;28;20038;-66
2022/04/27 00:45:59;;;;;;;13.65;8.95;;;;;;;6.45;100.00;96883.31;4969839;28;20050;-68
2022/04/27 00:48:25;;;;;;;12.63;8.13;;;;;;;6.36;100.00;96882.59;4959674;28;20047;-66
2022/04/27 00:50:51;;;;;;;14.25;8.57;;;;;;;6.19;100.00;96888.19;4963864;28;20047;-66
2022/04/27 00:53:18;;;;;;;14.98;9.23;;;;;;;5.92;100.00;96884.84;4958234;28;20046;-68
2022/04/27 00:55:43;;;;;;;12.10;9.13;;;;;;;5.87;100.00;96888.56;4928848;28;20047;-68
2022/04/27 00:58:14;;;;;;;12.73;8.85;;;;;;;5.82;100.00;96888.75;4964198;28;20690;-67
2022/04/27 01:00:40;;;;;;;14.40;9.80;;;;;;;5.78;100.00;96895.19;4942077;28;20042;-67
2022/04/27 01:03:06;;;;;;;16.48;9.95;;;;;;;5.75;100.00;96897.44;4960888;28;20043;-67
2022/04/27 01:05:31;;;;;;;14.70;9.32;;;;;;;5.69;100.00;96898.75;4979843;28;20518;-67
2022/04/27 01:08:00;;;;;;;13.35;9.52;;;;;;;5.72;100.00;96897.28;4992434;28;20112;-68
2022/04/27 01:10:27;;;;;;;17.58;10.15;;;;;;;5.67;100.00;96900.19;4978484;28;20420;-67
2022/04/27 01:12:54;;;;;;;14.02;10.30;;;;;;;5.49;100.00;96892.19;4971443;28;20457;-68
2022/04/27 01:15:33;;;;;;;16.92;10.32;;;;;;;5.38;100.00;96904.53;4968661;28;20205;-69
2022/04/27 01:17:59;;;;;;;18.05;11.25;;;;;;;5.33;100.00;96905.53;4972360;28;20111;-66
2022/04/27 01:20:25;;;;;;;17.38;12.18;;;;;;;5.33;100.00;96902.81;4954929;28;20559;-67
2022/04/27 01:22:50;;;;;;;18.63;12.02;;;;;;;5.38;100.00;96903.72;4987668;28;20105;-67
2022/04/27 01:25:16;;;;;;;18.63;12.05;;;;;;;5.40;100.00;96904.19;4974260;28;20042;-68
2022/04/27 01:27:42;;;;;;;28.35;14.40;;;;;;;5.48;100.00;96908.81;4991603;28;20038;-68
2022/04/27 01:30:10;;;;;;;17.88;11.10;;;;;;;5.64;100.00;96900.88;4993353;28;20038;-66
2022/04/27 01:32:36;;;;;;;17.17;11.02;;;;;;;5.80;100.00;96899.16;4995804;28;20037;-67
2022/04/27 01:35:02;;;;;;;17.77;10.77;;;;;;;5.89;100.00;96905.34;4977847;28;20035;-67
2022/04/27 01:40:11;;;;;;;18.13;10.02;;;;;;;6.13;100.00;96903.91;4976636;28;20432;-67
2022/04/27 01:42:37;;;;;;;15.95;10.68;;;;;;;6.15;100.00;96901.66;4976294;28;20027;-67
2022/04/27 01:45:03;;;;;;;17.73;11.50;;;;;;;6.08;100.00;96904.91;4976354;28;20488;-68
2022/04/27 01:47:29;;;;;;;12.90;9.70;;;;;;;5.99;100.00;96906.09;4958349;28;20042;-68
2022/04/27 01:49:54;;;;;;;14.43;9.32;;;;;;;6.10;100.00;96907.28;4976516;28;20031;-67
2022/04/27 01:55:04;;;;;;;13.38;9.52;;;;;;;6.26;100.00;96915.63;4976035;28;20546;-68
2022/04/27 01:57:30;;;;;;;13.88;8.98;;;;;;;6.32;100.00;96917.84;4958481;28;20468;-67
2022/04/27 01:59:56;;;;;;;13.52;8.73;;;;;;;6.33;100.00;96924.06;4968233;28;20031;-68
2022/04/27 02:02:21;;;;;;;13.15;8.88;;;;;;;6.31;100.00;96920.88;4959176;28;20030;-67
2022/04/27 02:04:47;;;;;;;12.70;8.68;;;;;;;6.31;100.00;96926.31;4975919;28;20125;-67
2022/04/27 02:07:12;;;;;;;13.65;9.27;;;;;;;6.30;100.00;96924.72;4957953;28;20029;-67
2022/04/27 02:09:38;;;;;;;11.05;8.32;;;;;;;6.29;100.00;96923.16;4976791;28;20558;-67
2022/04/27 02:12:05;;;;;;;12.48;8.75;;;;;;;6.31;100.00;96929.81;4976346;28;20034;-68
2022/04/27 02:14:30;;;;;;;13.40;9.20;;;;;;;6.28;100.00;96929.69;4976143;28;20101;-68
2022/04/27 02:16:57;;;;;;;13.77;9.18;;;;;;;6.08;100.00;96923.94;4960016;28;20471;-68
2022/04/27 02:19:22;;;;;;;12.93;8.77;;;;;;;6.02;100.00;96927.19;4957534;29;20087;-69
2022/04/27 02:21:47;;;;;;;13.57;9.73;;;;;;;5.98;100.00;96924.34;4957913;29;20031;-69
2022/04/27 02:24:13;;;;;;;14.88;9.98;;;;;;;5.91;100.00;96929.47;4942885;29;20035;-68
2022/04/27 02:26:38;;;;;;;16.38;9.82;;;;;;;5.90;100.00;96925.16;4958094;29;20062;-67
2022/04/27 02:29:04;;;;;;;13.82;9.02;;;;;;;6.06;100.00;96934.34;4957906;29;20087;-68
2022/04/27 02:31:29;;;;;;;12.57;9.20;;;;;;;6.18;100.00;96936.34;4940650;29;20039;-69
2022/04/27 02:33:55;;;;;;;12.98;8.55;;;;;;;6.34;100.00;96936.53;4957550;29;20120;-69
2022/04/27 02:36:21;;;;;;;14.88;9.75;;;;;;;6.31;100.00;96929.81;4956840;29;20511;-69
2022/04/27 02:38:46;;;;;;;10.55;7.88;;;;;;;6.28;100.00;96930.50;4970807;28;20129;-69
2022/04/27 02:41:12;;;;;;;12.75;8.77;;;;;;;6.28;100.00;96927.78;4983047;28;20038;-68
2022/04/27 02:43:40;;;;;;;11.70;7.88;;;;;;;6.32;100.00;96927.94;4977402;28;20052;-67
2022/04/27 02:46:05;;;;;;;15.77;8.77;;;;;;;6.20;100.00;96925.94;4965121;28;20039;-71
2022/04/27 02:48:31;;;;;;;15.77;8.90;;;;;;;6.02;100.00;96936.16;4976898;28;20042;-69
2022/04/27 02:53:41;;;;;;;12.15;8.23;;;;;;;5.86;100.00;96929.66;4987408;28;20037;-69
2022/04/27 02:56:06;;;;;;;14.40;8.40;;;;;;;5.89;100.00;96935.25;4995650;28;20407;-69
2022/04/27 02:58:32;;;;;;;12.63;9.00;;;;;;;5.93;100.00;96929.94;4996198;28;20458;-69
2022/04/27 03:00:57;;;;;;;14.85;8.55;;;;;;;6.00;100.00;96929.44;4984155;28;20101;-69
2022/04/27 03:03:23;;;;;;;16.88;8.48;;;;;;;6.06;100.00;96931.63;4982896;28;20038;-68
2022/04/27 03:05:49;;;;;;;11.65;8.88;;;;;;;6.11;100.00;96934.16;4965455;28;20431;-68
2022/04/27 03:08:14;;;;;;;16.85;9.00;;;;;;;6.18;100.00;96936.34;4966667;28;20034;-68
2022/04/27 03:10:40;;;;;;;13.45;8.73;;;;;;;6.21;100.00;96940.31;4983496;28;20073;-67
2022/04/27 03:13:05;;;;;;;12.27;8.35;;;;;;;6.18;100.00;96946.44;4984124;28;20041;-68
2022/04/27 03:15:32;;;;;;;11.43;8.02;;;;;;;6.06;100.00;96939.78;4969430;28;20041;-68
2022/04/27 03:20:42;;;;;;;12.88;9.52;;;;;;;5.70;100.00;96943.03;4986302;28;20106;-67
2022/04/27 03:23:07;;;;;;;14.23;9.80;;;;;;;5.62;100.00;96941.97;4987141;28;20065;-69
2022/04/27 03:25:33;;;;;;;14.10;9.25;;;;;;;5.70;100.00;96934.88;4994096;28;20045;-68
2022/04/27 03:27:59;;;;;;;17.95;10.55;;;;;;;5.30;100.00;96933.31;4995446;28;20030;-68
2022/04/27 03:30:24;;;;;;;16.08;10.55;;;;;;;5.15;100.00;96931.16;4995015;28;20069;-67
2022/04/27 03:32:50;;;;;;;16.25;11.05;;;;;;;5.14;100.00;96940.41;4970247;28;20043;-68
2022/04/27 03:35:15;;;;;;;18.13;10.95;;;;;;;5.20;100.00;96944.53;4983431;28;20031;-68
2022/04/27 03:37:41;;;;;;;18.63;10.98;;;;;;;5.37;100.00;96943.69;4975355;28;20404;-68
2022/04/27 03:40:09;;;;;;;16.65;11.10;;;;;;;5.51;100.00;96954.31;4958638;28;20038;-67
2022/04/27 03:42:35;;;;;;;18.02;10.77;;;;;;;5.57;100.00;96949.50;4958643;28;20054;-69
2022/04/27 03:45:00;;;;;;;14.90;10.95;;;;;;;5.70;100.00;96953.91;4975401;28;20397;-68
2022/04/27 03:47:26;;;;;;;17.85;11.15;;;;;;;5.67;100.00;96951.84;4979361;28;20069;-68
2022/04/27 03:49:51;;;;;;;17.98;10.80;;;;;;;5.65;100.00;96951.38;4980311;28;20031;-69
2022/04/27 03:52:18;;;;;;;38.30;21.42;;;;;;;5.68;100.00;96956.94;4991352;28;20034;-67
2022/04/27 03:54:43;;;;;;;21.20;11.52;;;;;;;5.63;100.00;96965.28;4980168;28;20026;-68
2022/04/27 03:57:09;;;;;;;15.32;10.40;;;;;;;5.66;100.00;96958.41;4981019;28;20042;-68
2022/04/27 03:59:34;;;;;;;15.13;10.15;;;;;;;5.72;100.00;96962.53;4965774;28;20042;-67
2022/04/27 04:02:00;;;;;;;17.48;10.35;;;;;;;5.76;100.00;96966.16;4976841;28;20061;-68
2022/04/27 04:04:25;;;;;;;17.70;10.43;;;;;;;5.68;100.00;96965.09;4987568;28;20700;-68
2022/04/27 04:06:51;;;;;;;15.55;10.00;;;;;;;5.66;100.00;96963.84;4977395;28;20026;-69
2022/04/27 04:09:16;;;;;;;23.42;10.80;;;;;;;5.67;100.00;96968.97;4977750;28;20046;-67
2022/04/27 04:11:42;;;;;;;16.77;10.43;;;;;;;5.67;100.00;96971.69;4970992;28;20089;-67
2022/04/27 04:14:07;;;;;;;14.93;10.13;;;;;;;5.71;100.00;96961.72;4947868;28;20101;-68
2022/04/27 04:16:33;;;;;;;14.85;9.25;;;;;;;5.84;100.00;96962.63;4982976;28;20045;-68
2022/04/27 04:18:58;;;;;;;14.77;9.70;;;;;;;5.97;100.00;96973.59;4967153;28;20302;-67
2022/04/27 04:21:24;;;;;;;18.85;9.98;;;;;;;5.93;100.00;96981.59;4941656;28;20046;-68
2022/04/27 04:23:49;;;;;;;11.70;8.38;;;;;;;6.01;100.00;96977.25;4965024;28;20058;-67
2022/04/27 04:28:59;;;;;;;14.02;9.00;;;;;;;6.09;100.00;96982.63;4963332;28;20446;-67
2022/04/27 04:31:24;;;;;;;23.08;10.45;;;;;;;6.08;100.00;96982.97;4965801;28;20070;-67
2022/04/27 04:33:50;;;;;;;15.93;10.02;;;;;;;6.11;100.00;96985.03;4970825;28;20038;-67
2022/04/27 04:36:15;;;;;;;26.65;13.32;;;;;;;5.96;100.00;96993.75;4957557;28;20065;-66
2022/04/27 04:38:40;;;;;;;29.05;16.05;;;;;;;5.97;100.00;96998.06;4945745;28;20051;-67
2022/04/27 04:41:06;;;;;;;46.67;22.60;;;;;;;6.07;100.00;97001.22;4969150;28;20081;-66
2022/04/27 04:43:34;;;;;;;49.75;22.92;;;;;;;6.15;100.00;97002.28;4982756;28;20057;-67
2022/04/27 04:46:00;;;;;;;36.83;18.33;;;;;;;6.02;100.00;97001.41;4964409;28;20034;-67
2022/04/27 04:48:25;;;;;;;37.50;17.80;;;;;;;6.01;100.00;96994.34;4975838;28;20048;-68
2022/04/27 04:50:51;;;;;;;30.58;15.80;;;;;;;6.16;100.00;97008.50;4965616;28;20057;-67
2022/04/27 04:53:19;;;;;;;16.38;10.23;;;;;;;6.31;100.00;97007.94;4951473;28;20051;-67
2022/04/27 04:55:44;;;;;;;13.95;9.18;;;;;;;6.43;100.00;97012.66;4970893;28;20051;-68
2022/04/27 04:58:10;;;;;;;13.68;8.35;;;;;;;6.53;100.00;97014.97;4956503;28;20567;-67
2022/04/27 05:00:37;;;;;;;12.30;8.80;;;;;;;6.67;100.00;97015.47;4962487;28;20042;-67
2022/04/27 05:03:03;;;;;;;12.20;8.60;;;;;;;6.79;100.00;97020.19;4955831;28;20039;-67
2022/04/27 05:05:28;;;;;;;13.25;8.18;;;;;;;6.93;100.00;97027.28;4963404;28;20073;-67
2022/04/27 05:07:53;;;;;;;12.70;8.32;;;;;;;7.00;100.00;97030.25;4964770;28;20050;-68
2022/04/27 05:10:19;;;;;;;11.93;8.25;;;;;;;6.99;100.00;97025.97;4973239;28;20050;-68
2022/04/27 05:12:44;;;;;;;12.70;8.25;;;;;;;7.03;100.00;97024.16;4981976;28;20062;-67
2022/04/27 05:15:19;;;;;;;13.98;8.75;;;;;;;7.03;100.00;97032.31;4977399;28;20541;-68
2022/04/27 05:17:44;;;;;;;10.70;7.32;;;;;;;6.94;100.00;97034.31;4964073;28;20105;-67
2022/04/27 05:20:10;;;;;;;11.95;7.85;;;;;;;6.99;100.00;97039.56;4957754;28;20054;-68
2022/04/27 05:22:38;;;;;;;10.82;8.10;;;;;;;7.14;100.00;97035.41;4978603;28;20533;-67
2022/04/27 05:25:05;;;;;;;10.43;7.72;;;;;;;7.17;100.00;97040.19;4956339;28;20518;-68
2022/04/27 05:27:30;;;;;;;12.20;8.13;;;;;;;7.08;100.00;97043.00;4971126;28;20062;-68
2022/04/27 05:32:44;;;;;;;17.48;9.13;;;;;;;6.89;100.00;97033.38;4963069;28;20436;-68
2022/04/27 05:35:11;;;;;;;14.18;9.35;;;;;;;6.98;100.00;97035.25;4964188;28;20039;-67
2022/04/27 05:37:38;;;;;;;17.30;10.43;;;;;;;7.21;100.00;97031.00;4972054;28;20042;-67
2022/04/27 05:40:06;;;;;;;15.00;9.93;;;;;;;7.39;100.00;97034.34;4971936;28;20045;-67
2022/04/27 05:42:32;;;;;;;15.68;9.50;;;;;;;7.55;100.00;97041.88;4982634;28;20098;-67
2022/04/27 05:44:58;;;;;;;20.85;11.07;;;;;;;7.44;100.00;97033.34;4982975;28;20050;-67
2022/04/27 05:47:25;;;;;;;18.80;12.50;;;;;;;7.18;100.00;97039.84;4954469;28;20565;-66
2022/04/27 05:49:50;;;;;;;19.23;12.13;;;;;;;7.16;100.00;97042.09;4979402;28;20054;-67
2022/04/27 05:52:17;;;;;;;22.55;14.32;;;;;;;7.28;100.00;97044.88;4924666;28;20051;-68
2022/04/27 05:54:42;;;;;;;21.90;14.25;;;;;;;7.25;100.00;97050.19;4945376;28;20074;-68
2022/04/27 05:57:07;;;;;;;23.00;14.38;;;;;;;7.23;100.00;97047.03;4957805;28;20049;-69
2022/04/27 05:59:33;;;;;;;21.33;14.27;;;;;;;7.26;100.00;97052.59;4962993;28;20128;-67
2022/04/27 06:01:59;;;;;;;22.67;14.15;;;;;;;7.06;100.00;97048.00;4966342;28;20046;-66
2022/04/27 06:04:26;;;;;;;21.70;14.73;;;;;;;7.14;100.00;97049.81;4951164;28;20061;-68
2022/04/27 06:06:54;;;;;;;25.05;15.38;;;;;;;7.09;100.00;97052.75;4982726;28;20046;-68
2022/04/27 06:09:20;;;;;;;22.65;15.23;;;;;;;6.93;100.00;97047.13;4978809;28;20046;-68
2022/04/27 06:11:46;;;;;;;31.33;17.00;;;;;;;6.91;100.00;97054.06;4983475;28;20042;-68
2022/04/27 06:14:11;;;;;;;26.85;16.25;;;;;;;6.99;100.00;97055.91;4960519;28;20046;-67
2022/04/27 06:16:36;;;;;;;27.20;15.88;;;;;;;6.92;100.00;97056.44;4975268;28;20046;-67
2022/04/27 06:19:03;;;;;;;28.23;17.38;;;;;;;6.92;100.00;97053.72;4960944;28;20042;-67
2022/04/27 06:21:31;;;;;;;25.67;14.88;;;;;;;7.39;100.00;97061.59;4984915;28;20043;-67
2022/04/27 06:26:22;;;;;;;22.33;14.55;;;;;;;9.40;100.00;97060.66;4991701;23;20070;-71
2022/04/27 06:28:47;;;;;;;16.92;10.35;;;;;;;10.51;100.00;97068.88;4965751;28;20042;-71
2022/04/27 06:31:13;;;;;;;14.18;9.65;;;;;;;9.61;100.00;97058.50;4943813;28;20097;-71
2022/04/27 06:33:38;;;;;;;16.00;9.90;;;;;;;9.17;100.00;97067.50;4965685;28;20439;-69
2022/04/27 06:36:04;;;;;;;17.88;12.10;;;;;;;10.65;100.00;97071.16;4943518;28;20039;-69
2022/04/27 06:38:29;;;;;;;17.08;10.88;;;;;;;12.71;100.00;97069.00;4964028;28;20129;-71
2022/04/27 06:40:55;;;;;;;12.93;8.55;;;;;;;13.36;89.38;97065.09;4955513;28;20046;-71
2022/04/27 06:43:20;;;;;;;17.80;10.68;;;;;;;11.78;96.67;97073.00;4948537;28;20076;-71
2022/04/27 06:45:46;;;;;;;13.98;9.75;;;;;;;10.99;100.00;97057.78;4963735;28;20098;-70
2022/04/27 06:48:11;;;;;;;16.45;9.50;;;;;;;10.58;100.00;97068.25;4959001;28;20043;-67
2022/04/27 06:50:37;;;;;;;19.27;13.77;;;;;;;11.65;95.92;97077.88;4964579;28;20140;-69
2022/04/27 06:53:04;;;;;;;17.13;11.13;;;;;;;11.74;94.44;97075.69;4960614;28;20154;-67
2022/04/27 06:55:30;;;;;;;17.75;12.65;;;;;;;11.33;92.14;97078.03;4962785;28;20586;-67
2022/04/27 06:57:56;;;;;;;18.08;11.40;;;;;;;10.81;96.37;97074.63;4937066;28;20047;-69
2022/04/27 07:00:22;;;;;;;16.80;10.65;;;;;;;10.20;98.90;97072.47;4936975;29;20113;-69
2022/04/27 07:02:47;;;;;;;19.45;12.40;;;;;;;10.25;100.00;97080.41;4956397;28;20046;-70
2022/04/27 07:05:17;;;;;;;17.25;10.13;;;;;;;10.10;97.35;97090.19;4939752;28;20046;-68
2022/04/27 07:07:44;;;;;;;15.75;9.68;;;;;;;10.47;92.46;97079.75;4960430;28;20142;-69
2022/04/27 07:10:11;;;;;;;15.18;9.43;;;;;;;11.66;87.89;97087.66;4951845;28;20038;-69
2022/04/27 07:12:37;;;;;;;13.75;9.25;;;;;;;11.60;84.38;97080.91;4961440;28;20046;-69
2022/04/27 07:15:04;;;;;;;15.63;9.43;;;;;;;12.38;83.17;97092.44;4954678;28;20078;-67
2022/04/27 07:17:30;;;;;;;14.93;9.23;;;;;;;12.93;84.18;97083.03;4928192;28;20045;-69
2022/04/27 07:19:56;;;;;;;13.43;8.18;;;;;;;12.90;77.62;97089.25;4963846;28;20085;-68
2022/04/27 07:22:21;;;;;;;17.42;9.57;;;;;;;10.99;90.73;97088.72;4953309;28;21066;-68
2022/04/27 07:24:49;;;;;;;17.05;10.23;;;;;;;12.62;84.53;97090.44;4965237;28;20051;-69
2022/04/27 07:27:14;;;;;;;14.32;9.45;;;;;;;13.04;77.78;97105.94;4958014;28;20051;-70
2022/04/27 07:29:40;;;;;;;13.20;8.30;;;;;;;13.38;75.73;97103.25;4962199;28;20062;-71
2022/04/27 07:32:05;;;;;;;15.60;8.98;;;;;;;15.41;68.43;97102.47;4957845;28;20046;-70
2022/04/27 07:34:31;;;;;;;21.90;15.75;;;;;;;12.76;77.99;97109.88;4943265;28;20393;-69
2022/04/27 07:36:58;;;;;;;18.25;11.38;;;;;;;12.52;83.52;97111.09;4955582;28;20423;-68
2022/04/27 07:39:24;;;;;;;16.38;10.57;;;;;;;11.52;87.33;97103.84;4933916;28;20532;-68
2022/04/27 07:41:50;;;;;;;16.13;10.25;;;;;;;11.28;86.30;97103.00;4955279;28;20034;-68
2022/04/27 07:44:16;;;;;;;20.48;13.40;;;;;;;11.05;89.63;97106.47;4959386;28;20035;-68
2022/04/27 07:46:47;;;;;;;18.67;10.85;;;;;;;11.19;88.05;97111.44;4957682;28;20576;-69
2022/04/27 07:49:15;;;;;;;14.55;8.85;;;;;;;10.37;89.01;97113.19;4969523;28;20163;-69
2022/04/27 07:51:40;;;;;;;17.58;11.90;;;;;;;10.39;92.93;97110.88;4971021;28;20114;-69
2022/04/27 07:54:06;;;;;;;17.17;11.68;;;;;;;10.57;90.22;97110.50;4959866;28;20074;-68
2022/04/27 07:56:31;;;;;;;13.95;8.63;;;;;;;10.78;89.86;97119.19;4964289;28;20496;-68
2022/04/27 07:58:57;;;;;;;15.13;9.35;;;;;;;11.65;85.57;97119.81;4946572;28;20054;-70
2022/04/27 08:01:22;;;;;;;15.20;10.20;;;;;;;12.19;87.47;97126.28;4944232;28;20063;-68
2022/04/27 08:03:48;;;;;;;17.15;10.13;;;;;;;10.93;88.18;97131.28;4962130;28;20109;-68
2022/04/27 08:06:14;;;;;;;15.88;10.55;;;;;;;10.38;92.63;97131.19;4948588;28;20074;-69
2022/04/27 08:08:39;;;;;;;14.13;10.10;;;;;;;10.30;96.41;97121.19;4954546;28;20070;-68
2022/04/27 08:11:07;;;;;;;16.33;10.77;;;;;;;11.12;94.29;97119.53;4971898;28;20038;-67
2022/04/27 08:13:32;;;;;;;16.48;9.15;;;;;;;10.78;92.26;97126.63;4966798;28;20244;-67
2022/04/27 08:15:58;;;;;;;11.82;7.60;;;;;;;10.47;92.74;97134.53;4952424;28;20050;-69
2022/04/27 08:18:23;;;;;;;13.57;8.55;;;;;;;10.72;93.64;97134.31;4957254;28;20051;-70
2022/04/27 08:23:34;;;;;;;10.82;6.38;;;;;;;11.93;88.34;97134.44;4959051;28;20039;-72
2022/04/27 08:26:03;;;;;;;10.43;6.30;;;;;;;12.60;81.04;97140.28;4954524;28;20082;-69
2022/04/27 08:28:28;;;;;;;10.10;6.95;;;;;;;11.39;81.74;97145.16;4959273;28;20042;-68
2022/04/27 08:30:55;;;;;;;10.60;6.65;;;;;;;11.27;82.49;97145.28;4962036;28;20058;-67
2022/04/27 08:33:21;;;;;;;7.88;5.13;;;;;;;11.72;79.18;97137.53;4958879;28;20062;-68
2022/04/27 08:35:47;;;;;;;7.88;4.88;;;;;;;12.20;77.05;97149.03;4949283;28;20475;-69
2022/04/27 08:38:14;;;;;;;7.63;5.22;;;;;;;12.12;72.25;97153.63;4922766;28;20035;-69
2022/04/27 08:40:41;;;;;;;11.77;5.78;;;;;;;11.71;75.01;97155.97;4951419;28;20046;-68
2022/04/27 08:43:09;;;;;;;9.13;5.40;;;;;;;11.68;74.44;97156.69;4939280;28;20046;-68
2022/04/27 08:45:35;;;;;;;10.35;5.43;;;;;;;11.44;76.50;97163.28;4961484;28;20039;-69
2022/04/27 08:48:01;;;;;;;9.40;6.03;;;;;;;11.38;78.02;97164.69;4944676;28;20055;-67
2022/04/27 08:50:28;;;;;;;8.05;4.85;;;;;;;11.36;78.10;97158.78;4956334;28;20049;-68
2022/04/27 08:52:55;;;;;;;5.93;3.63;;;;;;;11.84;69.26;97162.88;4950086;28;20129;-68
2022/04/27 08:55:21;;;;;;;7.88;5.15;;;;;;;12.62;65.92;97165.44;4955556;28;20046;-68
2022/04/27 08:57:48;;;;;;;6.88;4.93;;;;;;;11.50;67.03;97169.25;4961821;28;20046;-69
2022/04/27 09:00:19;;;;;;;6.88;4.53;;;;;;;11.03;69.05;97158.09;4938112;28;20125;-69
2022/04/27 09:02:45;;;;;;;7.40;4.72;;;;;;;11.63;69.03;97154.22;4948706;28;20074;-69
2022/04/27 09:05:15;;;;;;;7.85;5.07;;;;;;;12.65;65.29;97160.34;4939129;28;20361;-69
2022/04/27 09:07:42;;;;;;;8.30;5.40;;;;;;;12.18;67.35;97157.63;4943726;28;20451;-67
2022/04/27 09:10:09;;;;;;;8.32;4.65;;;;;;;13.51;61.01;97161.56;4948104;28;20050;-68
2022/04/27 09:12:43;;;;;;;9.43;5.80;;;;;;;13.32;61.55;97155.03;4958393;28;20747;-69
2022/04/27 09:15:09;;;;;;;7.63;5.50;;;;;;;14.45;63.74;97153.09;4956411;28;20039;-70
2022/04/27 09:23:06;;;;;;;8.32;5.28;;;;;;;18.48;47.04;97156.13;4956432;28;20416;-67
2022/04/27 09:25:36;;;;;;;7.68;4.50;;;;;;;17.73;49.51;97146.25;4960654;28;20052;-68
2022/04/27 09:28:03;;;;;;;9.27;5.68;;;;;;;19.64;44.46;97156.59;4957896;28;20073;-67
2022/04/27 09:30:31;;;;;;;9.30;5.22;;;;;;;20.62;41.51;97140.94;4963355;28;20559;-71
2022/04/27 09:32:57;;;;;;;8.15;5.28;;;;;;;15.79;47.24;97149.97;4962773;28;20054;-68
2022/04/27 09:35:29;;;;;;;10.55;5.63;;;;;;;14.78;54.02;97153.34;4938618;28;20141;-68
2022/04/27 09:37:55;;;;;;;8.48;5.68;;;;;;;13.79;59.17;97150.09;4957485;28;20508;-69
2022/04/27 09:40:20;;;;;;;8.98;6.00;;;;;;;13.20;60.04;97147.78;4953437;28;20123;-68
2022/04/27 09:42:46;;;;;;;9.18;6.07;;;;;;;13.11;57.20;97144.53;4960887;28;20039;-68
2022/04/27 09:45:25;;;;;;;9.45;5.88;;;;;;;13.71;54.30;97149.22;4953730;28;20031;-69
2022/04/27 09:48:00;;;;;;;10.35;5.72;;;;;;;13.91;50.50;97144.31;4958432;28;20042;-69
2022/04/27 09:50:26;;;;;;;9.45;5.90;;;;;;;14.24;51.22;97142.69;4957448;28;20062;-70
2022/04/27 09:52:54;;;;;;;9.80;6.60;;;;;;;13.18;52.51;97143.81;4964093;28;20042;-70
2022/04/27 09:55:20;;;;;;;9.75;6.05;;;;;;;13.01;54.82;97151.47;4959270;28;20426;-68
2022/04/27 09:57:53;;;;;;;11.02;6.28;;;;;;;13.17;55.39;97145.78;4965471;28;20047;-69
2022/04/27 10:00:22;;;;;;;10.25;5.05;;;;;;;14.09;50.83;97147.25;4940005;28;20109;-69
2022/04/27 10:02:48;;;;;;;8.43;5.30;;;;;;;15.38;53.80;97138.34;4965380;28;20506;-68
2022/04/27 10:05:13;;;;;;;12.00;5.88;;;;;;;15.08;52.96;97147.66;4942138;28;20082;-69
2022/04/27 10:07:40;;;;;;;7.32;4.90;;;;;;;16.01;48.89;97147.25;4964165;28;20077;-71
2022/04/27 10:10:06;;;;;;;11.98;5.35;;;;;;;15.81;46.98;97141.25;4956484;28;20054;-67
2022/04/27 10:12:36;;;;;;;8.50;5.65;;;;;;;18.62;41.96;97141.34;4964541;28;20124;-68
2022/04/27 10:15:01;;;;;;;9.30;5.82;;;;;;;19.65;40.84;97139.50;4963691;28;20118;-67
2022/04/27 10:17:28;;;;;;;8.30;5.18;;;;;;;17.83;40.20;97136.31;4961961;28;20372;-70
2022/04/27 10:19:53;;;;;;;9.15;5.90;;;;;;;18.68;41.48;97134.94;4965222;28;20046;-68
2022/04/27 10:22:31;;;;;;;16.27;5.35;;;;;;;18.81;38.68;97143.56;4957142;28;20582;-69
2022/04/27 10:24:57;;;;;;;8.85;5.30;;;;;;;18.54;41.56;97135.84;4963238;28;20133;-69
2022/04/27 10:27:24;;;;;;;10.95;5.43;;;;;;;17.25;43.87;97131.03;4939894;28;20069;-69
2022/04/27 10:30:00;;;;;;;7.78;4.88;;;;;;;15.17;49.68;97130.75;4946067;28;20035;-68
2022/04/27 10:32:36;;;;;;;9.85;6.60;;;;;;;15.51;48.78;97134.06;4940048;28;20725;-67
2022/04/27 10:35:15;;;;;;;8.88;5.82;;;;;;;15.61;48.42;97129.75;4963650;28;20046;-68
2022/04/27 10:37:43;;;;;;;11.68;8.05;;;;;;;13.74;54.97;97129.22;4966061;28;20042;-67
2022/04/27 10:40:38;;;;;;;14.10;7.30;;;;;;;13.17;58.40;97134.00;4961554;28;20162;-67
2022/04/27 10:43:06;;;;;;;13.27;6.20;;;;;;;13.90;57.28;97136.44;4957336;28;20034;-66
2022/04/27 10:45:34;;;;;;;10.27;6.70;;;;;;;13.65;54.11;97128.72;4941916;28;20129;-71
2022/04/27 10:48:03;;;;;;;10.38;6.82;;;;;;;12.60;56.54;97144.97;4963330;28;20046;-70
2022/04/27 10:50:33;;;;;;;;;;;;;;;13.19;56.13;97132.44;4945381;28;20058;-68
2022/04/27 10:53:15;;;;;;;14.05;8.73;;;;;;;13.32;59.68;97143.25;4946783;28;19918;-69
2022/04/27 10:55:43;;;;;;;11.00;6.88;;;;;;;13.89;60.19;97127.38;4962044;28;20143;-67
2022/04/27 10:58:17;;;;;;;12.50;7.53;;;;;;;14.10;58.87;97126.81;4941549;28;20512;-67
2022/04/27 11:00:58;;;;;;;10.02;6.30;;;;;;;13.62;55.01;97137.72;4959495;28;20081;-68
2022/04/27 11:03:25;;;;;;;10.90;6.35;;;;;;;13.44;56.97;97136.72;4954481;28;20129;-67
2022/04/27 11:05:51;;;;;;;11.65;6.68;;;;;;;13.32;56.80;97135.78;4962563;28;20430;-68
2022/04/27 11:08:25;;;;;;;10.15;5.95;;;;;;;13.14;59.01;97140.25;4954233;28;20404;-70
2022/04/27 11:10:54;;;;;;;9.43;5.90;;;;;;;13.30;57.85;97138.09;4962629;28;20134;-69
2022/04/27 11:13:25;;;;;;;14.30;6.00;;;;;;;13.74;55.74;97140.22;4940443;28;20039;-66
2022/04/27 11:15:51;;;;;;;10.30;6.75;;;;;;;13.51;59.50;97129.34;4959915;28;20451;-69
2022/04/27 11:18:16;;;;;;;9.40;6.30;;;;;;;13.19;61.00;97135.19;4958251;28;20101;-68
2022/04/27 11:20:43;;;;;;;10.25;5.22;;;;;;;13.36;59.42;97130.31;4964796;28;20050;-70
2022/04/27 11:23:20;;;;;;;10.90;6.00;;;;;;;13.93;60.35;97130.19;4954317;28;20046;-67
2022/04/27 11:25:50;;;;;;;11.00;5.57;;;;;;;13.21;58.50;97126.56;4963192;28;20071;-67
2022/04/27 11:28:17;;;;;;;8.50;5.50;;;;;;;13.18;60.27;97128.13;4938903;28;20054;-67
2022/04/27 11:30:43;;;;;;;9.43;5.55;;;;;;;13.30;57.15;97132.59;4959176;28;20042;-66
2022/04/27 11:33:10;;;;;;;9.95;5.40;;;;;;;13.62;56.54;97128.69;4940171;28;20030;-67
2022/04/27 11:35:47;;;;;;;9.70;5.38;;;;;;;13.98;55.73;97131.81;4944187;28;20035;-69
2022/04/27 11:38:18;;;;;;;10.05;5.78;;;;;;;15.09;51.32;97125.19;4957849;28;20403;-68
2022/04/27 11:40:44;;;;;;;7.75;5.07;;;;;;;15.99;51.11;97125.53;4945688;28;20096;-68
2022/04/27 11:43:09;;;;;;;9.07;5.65;;;;;;;15.57;52.23;97117.91;4924584;28;20133;-69
2022/04/27 11:45:35;;;;;;;10.45;6.20;;;;;;;14.09;55.16;97122.47;4961084;28;20042;-68
2022/04/27 11:48:06;;;;;;;10.95;6.10;;;;;;;15.02;55.74;97118.84;4962855;28;20051;-69
2022/04/27 11:50:38;;;;;;;7.47;5.00;;;;;;;15.43;56.31;97118.63;4960322;28;20129;-67